createdAt,value
2017-03-15T00:00:18.045Z,25.7
2017-03-15T00:01:18.087Z,25.7
2017-03-15T00:02:18.137Z,25.7
2017-03-15T00:03:18.070Z,25.7
2017-03-15T00:04:17.110Z,25.7
2017-03-15T00:05:17.096Z,25.7
2017-03-15T00:06:18.232Z,25.7
2017-03-15T00:07:18.370Z,25.7
2017-03-15T00:08:17.343Z,25.7
2017-03-15T00:09:18.384Z,25.7
2017-03-15T00:10:18.373Z,25.7
2017-03-15T00:11:18.507Z,25.7
2017-03-15T00:12:17.376Z,25.7
2017-03-15T00:13:18.633Z,25.7
2017-03-15T00:14:17.687Z,25.7
2017-03-15T00:15:18.793Z,25.7
2017-03-15T00:16:18.748Z,25.7
2017-03-15T00:17:18.889Z,25.7
2017-03-15T00:18:19.019Z,25.7
2017-03-15T00:19:19.012Z,25.7
2017-03-15T00:20:18.280Z,25.7
2017-03-15T00:21:19.154Z,25.7
2017-03-15T00:22:19.273Z,25.7
2017-03-15T00:23:18.196Z,25.7
2017-03-15T00:24:18.209Z,25.7
2017-03-15T00:25:19.455Z,25.7
2017-03-15T00:26:19.586Z,25.7
2017-03-15T00:27:18.511Z,25.7
2017-03-15T00:28:19.569Z,25.7
2017-03-15T00:29:18.618Z,25.7
2017-03-15T00:30:19.720Z,25.7
2017-03-15T00:31:19.831Z,25.7
2017-03-15T00:32:19.779Z,25.7
2017-03-15T00:33:18.821Z,25.7
2017-03-15T00:34:18.889Z,25.7
2017-03-15T00:35:18.916Z,25.7
2017-03-15T00:36:20.036Z,25.7
2017-03-15T00:37:20.297Z,25.7
2017-03-15T00:38:19.002Z,25.7
2017-03-15T00:39:19.075Z,25.7
2017-03-15T00:40:19.201Z,25.7
2017-03-15T00:41:20.244Z,25.7
2017-03-15T00:42:19.194Z,25.7
2017-03-15T00:43:19.635Z,25.7
2017-03-15T00:44:20.385Z,25.7
2017-03-15T00:45:20.488Z,25.7
2017-03-15T00:46:20.501Z,25.7
2017-03-15T00:47:19.603Z,25.7
2017-03-15T00:48:20.715Z,25.7
2017-03-15T00:49:19.795Z,25.7
2017-03-15T00:50:19.670Z,25.7
2017-03-15T00:51:20.885Z,25.7
2017-03-15T00:52:19.765Z,25.7
2017-03-15T00:53:20.989Z,25.7
2017-03-15T00:54:19.988Z,25.7
2017-03-15T00:55:20.100Z,25.7
2017-03-15T00:56:20.019Z,25.7
2017-03-15T00:57:21.121Z,25.7
2017-03-15T00:58:20.118Z,25.7
2017-03-15T00:59:21.379Z,25.7
2017-03-15T01:00:20.341Z,25.7
2017-03-15T01:01:20.545Z,25.7
2017-03-15T01:02:20.272Z,25.7
2017-03-15T01:03:21.389Z,25.7
2017-03-15T01:04:21.445Z,25.7
2017-03-15T01:05:21.425Z,25.7
2017-03-15T01:06:21.572Z,25.7
2017-03-15T01:07:21.757Z,25.7
2017-03-15T01:08:21.547Z,25.7
2017-03-15T01:09:21.693Z,25.8
2017-03-15T01:10:21.661Z,25.8
2017-03-15T01:11:20.686Z,25.8
2017-03-15T01:12:20.724Z,25.8
2017-03-15T01:13:20.920Z,25.8
2017-03-15T01:14:21.860Z,25.8
2017-03-15T01:15:21.891Z,25.8
2017-03-15T01:16:20.836Z,25.8
2017-03-15T01:17:22.066Z,25.8
2017-03-15T01:18:22.025Z,25.8
2017-03-15T01:19:21.263Z,25.8
2017-03-15T01:20:22.207Z,25.8
2017-03-15T01:21:21.097Z,25.8
2017-03-15T01:22:22.318Z,25.8
2017-03-15T01:23:21.257Z,25.8
2017-03-15T01:24:21.290Z,25.8
2017-03-15T01:25:22.557Z,25.8
2017-03-15T01:26:21.479Z,25.8
2017-03-15T01:27:22.589Z,25.8
2017-03-15T01:28:21.544Z,25.8
2017-03-15T01:29:21.608Z,25.8
2017-03-15T01:30:22.719Z,25.8
2017-03-15T01:31:21.890Z,25.8
2017-03-15T01:32:21.797Z,25.8
2017-03-15T01:33:22.820Z,25.8
2017-03-15T01:34:22.913Z,25.8
2017-03-15T01:35:23.026Z,25.8
2017-03-15T01:36:21.977Z,25.8
2017-03-15T01:37:23.274Z,25.8
2017-03-15T01:38:23.244Z,25.8
2017-03-15T01:39:23.265Z,25.8
2017-03-15T01:40:22.245Z,25.8
2017-03-15T01:41:24.156Z,25.8
2017-03-15T01:42:23.558Z,25.8
2017-03-15T01:43:23.824Z,25.8
2017-03-15T01:44:22.631Z,25.8
2017-03-15T01:45:23.771Z,25.8
2017-03-15T01:46:22.712Z,25.8
2017-03-15T01:47:22.760Z,25.8
2017-03-15T01:48:22.840Z,25.8
2017-03-15T01:49:24.043Z,25.8
2017-03-15T01:50:22.905Z,25.8
2017-03-15T01:51:24.060Z,25.8
2017-03-15T01:52:24.067Z,25.8
2017-03-15T01:53:23.016Z,25.8
2017-03-15T01:54:24.169Z,25.8
2017-03-15T01:55:23.207Z,25.8
2017-03-15T01:56:24.170Z,25.8
2017-03-15T01:57:24.288Z,25.8
2017-03-15T01:58:23.302Z,25.8
2017-03-15T01:59:23.258Z,25.8
2017-03-15T02:00:24.428Z,25.8
2017-03-15T02:01:23.613Z,25.8
2017-03-15T02:02:24.430Z,25.8
2017-03-15T02:03:24.648Z,25.8
2017-03-15T02:04:23.636Z,25.8
2017-03-15T02:05:24.795Z,25.8
2017-03-15T02:06:25.036Z,25.8
2017-03-15T02:07:24.914Z,25.8
2017-03-15T02:08:23.844Z,25.8
2017-03-15T02:09:24.025Z,25.8
2017-03-15T02:10:24.018Z,25.8
2017-03-15T02:11:25.182Z,25.8
2017-03-15T02:12:25.409Z,25.8
2017-03-15T02:13:24.257Z,25.8
2017-03-15T02:14:24.168Z,25.8
2017-03-15T02:15:24.323Z,25.8
2017-03-15T02:16:24.359Z,25.8
2017-03-15T02:17:24.447Z,25.8
2017-03-15T02:18:25.651Z,25.8
2017-03-15T02:19:25.611Z,25.8
2017-03-15T02:20:24.591Z,25.8
2017-03-15T02:21:24.555Z,25.8
2017-03-15T02:22:25.648Z,25.8
2017-03-15T02:23:24.701Z,25.8
2017-03-15T02:24:25.759Z,25.8
2017-03-15T02:25:25.319Z,25.8
2017-03-15T02:26:25.946Z,25.8
2017-03-15T02:27:25.950Z,25.8
2017-03-15T02:28:25.038Z,25.8
2017-03-15T02:29:25.101Z,25.8
2017-03-15T02:30:25.043Z,25.8
2017-03-15T02:31:26.247Z,25.8
2017-03-15T02:32:25.111Z,25.8
2017-03-15T02:33:25.275Z,25.8
2017-03-15T02:34:26.291Z,25.8
2017-03-15T02:35:26.433Z,25.9
2017-03-15T02:36:25.351Z,25.9
2017-03-15T02:37:25.500Z,25.8
2017-03-15T02:38:25.583Z,25.9
2017-03-15T02:39:26.693Z,25.8
2017-03-15T02:40:25.604Z,25.8
2017-03-15T02:41:26.777Z,25.9
2017-03-15T02:42:26.825Z,25.9
2017-03-15T02:43:30.903Z,25.9
2017-03-15T02:44:26.928Z,25.8
2017-03-15T02:45:26.970Z,25.8
2017-03-15T02:46:28.232Z,25.9
2017-03-15T02:47:27.151Z,25.9
2017-03-15T02:48:27.150Z,25.9
2017-03-15T02:49:26.109Z,25.9
2017-03-15T02:50:27.288Z,25.9
2017-03-15T02:51:27.258Z,25.9
2017-03-15T02:52:26.274Z,25.9
2017-03-15T02:53:26.296Z,25.9
2017-03-15T02:54:27.382Z,25.9
2017-03-15T02:55:26.319Z,25.9
2017-03-15T02:56:27.477Z,25.9
2017-03-15T02:57:26.430Z,25.9
2017-03-15T02:58:27.552Z,25.9
2017-03-15T02:59:27.593Z,25.9
2017-03-15T03:00:26.485Z,25.9
2017-03-15T03:01:26.553Z,25.9
2017-03-15T03:02:26.638Z,25.9
2017-03-15T03:03:27.783Z,25.9
2017-03-15T03:04:27.864Z,25.9
2017-03-15T03:05:27.854Z,25.9
2017-03-15T03:06:26.853Z,25.9
2017-03-15T03:07:26.810Z,25.9
2017-03-15T03:08:26.900Z,25.9
2017-03-15T03:09:28.131Z,25.9
2017-03-15T03:10:28.108Z,25.9
2017-03-15T03:11:28.266Z,25.9
2017-03-15T03:12:27.251Z,25.9
2017-03-15T03:13:28.355Z,25.9
2017-03-15T03:14:27.347Z,25.9
2017-03-15T03:15:28.445Z,25.9
2017-03-15T03:16:27.342Z,25.9
2017-03-15T03:17:28.588Z,25.8
2017-03-15T03:18:28.632Z,25.8
2017-03-15T03:19:28.590Z,25.8
2017-03-15T03:20:27.626Z,25.8
2017-03-15T03:21:28.728Z,25.9
2017-03-15T03:22:27.694Z,25.9
2017-03-15T03:23:28.792Z,25.9
2017-03-15T03:24:27.804Z,25.9
2017-03-15T03:25:27.823Z,25.9
2017-03-15T03:26:28.898Z,25.9
2017-03-15T03:27:27.939Z,25.9
2017-03-15T03:28:29.105Z,25.9
2017-03-15T03:29:28.089Z,25.9
2017-03-15T03:30:28.114Z,25.9
2017-03-15T03:31:29.322Z,25.9
2017-03-15T03:32:29.257Z,25.9
2017-03-15T03:33:29.380Z,25.9
2017-03-15T03:34:28.325Z,25.9
2017-03-15T03:35:29.397Z,25.9
2017-03-15T03:36:28.316Z,25.9
2017-03-15T03:37:28.398Z,25.9
2017-03-15T03:38:29.450Z,25.9
2017-03-15T03:39:29.496Z,25.9
2017-03-15T03:40:28.591Z,25.9
2017-03-15T03:41:29.660Z,25.9
2017-03-15T03:42:29.763Z,25.9
2017-03-15T03:43:29.748Z,25.9
2017-03-15T03:44:29.872Z,25.9
2017-03-15T03:45:28.797Z,25.9
2017-03-15T03:46:28.889Z,25.9
2017-03-15T03:47:29.921Z,25.9
2017-03-15T03:48:30.034Z,25.9
2017-03-15T03:49:28.983Z,25.9
2017-03-15T03:50:30.056Z,25.9
2017-03-15T03:51:30.138Z,25.9
2017-03-15T03:52:29.075Z,25.9
2017-03-15T03:53:29.169Z,25.9
2017-03-15T03:54:29.230Z,25.9
2017-03-15T03:55:30.366Z,25.9
2017-03-15T03:56:30.337Z,25.9
2017-03-15T03:57:30.353Z,25.9
2017-03-15T03:58:30.494Z,25.9
2017-03-15T03:59:30.483Z,25.9
2017-03-15T04:00:29.508Z,25.9
2017-03-15T04:01:30.625Z,25.9
2017-03-15T04:02:30.642Z,25.9
2017-03-15T04:03:29.881Z,25.9
2017-03-15T04:04:29.758Z,25.9
2017-03-15T04:05:30.882Z,25.9
2017-03-15T04:06:29.870Z,25.9
2017-03-15T04:07:31.016Z,25.9
2017-03-15T04:08:30.923Z,25.9
2017-03-15T04:09:31.182Z,25.9
2017-03-15T04:10:29.920Z,25.9
2017-03-15T04:11:31.043Z,25.9
2017-03-15T04:12:31.100Z,25.9
2017-03-15T04:13:31.016Z,25.9
2017-03-15T04:14:31.121Z,25.9
2017-03-15T04:15:30.250Z,25.9
2017-03-15T04:16:31.270Z,25.9
2017-03-15T04:17:31.351Z,25.9
2017-03-15T04:18:31.361Z,25.9
2017-03-15T04:19:31.323Z,25.9
2017-03-15T04:20:31.344Z,25.9
2017-03-15T04:21:31.650Z,25.9
2017-03-15T04:22:30.320Z,25.9
2017-03-15T04:23:30.407Z,25.9
2017-03-15T04:24:30.535Z,25.9
2017-03-15T04:25:31.591Z,25.9
2017-03-15T04:26:31.612Z,25.9
2017-03-15T04:27:31.782Z,25.9
2017-03-15T04:28:31.622Z,25.9
2017-03-15T04:29:31.636Z,25.9
2017-03-15T04:30:30.742Z,26
2017-03-15T04:31:30.758Z,26
2017-03-15T04:32:30.885Z,26
2017-03-15T04:33:31.069Z,26.1
2017-03-15T04:34:31.881Z,26.1
2017-03-15T04:35:31.999Z,26.1
2017-03-15T04:36:30.943Z,26.2
2017-03-15T04:37:30.845Z,26.3
2017-03-15T04:38:31.948Z,26.4
2017-03-15T04:39:32.214Z,26.5
2017-03-15T04:40:32.110Z,26.6
2017-03-15T04:41:31.043Z,26.7
2017-03-15T04:42:31.061Z,26.8
2017-03-15T04:43:32.191Z,27
2017-03-15T04:44:32.148Z,27.3
2017-03-15T04:45:31.391Z,27.5
2017-03-15T04:46:31.333Z,27.7
2017-03-15T04:47:31.317Z,27.9
2017-03-15T04:48:32.461Z,28
2017-03-15T04:49:31.394Z,28.1
2017-03-15T04:50:38.453Z,28.2
2017-03-15T04:51:32.751Z,28.3
2017-03-15T04:52:31.565Z,28.4
2017-03-15T04:53:31.512Z,28.4
2017-03-15T04:54:32.715Z,28.5
2017-03-15T04:55:32.795Z,28.5
2017-03-15T04:56:32.845Z,28.5
2017-03-15T04:57:37.577Z,28.5
2017-03-15T04:58:32.878Z,28.6
2017-03-15T04:59:31.981Z,28.6
2017-03-15T05:00:31.915Z,28.7
2017-03-15T05:01:33.175Z,28.7
2017-03-15T05:02:32.102Z,28.7
2017-03-15T05:03:32.307Z,28.7
2017-03-15T05:04:33.220Z,28.7
2017-03-15T05:05:33.215Z,28.7
2017-03-15T05:06:32.159Z,28.7
2017-03-15T05:07:32.281Z,28.7
2017-03-15T05:08:32.287Z,28.7
2017-03-15T05:09:33.532Z,28.7
2017-03-15T05:10:32.393Z,28.7
2017-03-15T05:11:32.465Z,28.7
2017-03-15T05:12:33.519Z,28.7
2017-03-15T05:13:32.480Z,28.7
2017-03-15T05:14:33.590Z,28.7
2017-03-15T05:15:32.901Z,28.7
2017-03-15T05:16:33.721Z,28.7
2017-03-15T05:17:33.797Z,28.6
2017-03-15T05:18:33.927Z,28.6
2017-03-15T05:19:32.802Z,28.6
2017-03-15T05:20:33.906Z,28.6
2017-03-15T05:21:33.071Z,28.6
2017-03-15T05:22:33.935Z,28.6
2017-03-15T05:23:34.036Z,28.6
2017-03-15T05:24:33.039Z,28.6
2017-03-15T05:25:34.131Z,28.6
2017-03-15T05:26:33.176Z,28.5
2017-03-15T05:27:34.471Z,28.5
2017-03-15T05:28:34.355Z,28.5
2017-03-15T05:29:34.349Z,28.5
2017-03-15T05:30:34.339Z,28.5
2017-03-15T05:31:35.194Z,28.5
2017-03-15T05:32:34.528Z,28.5
2017-03-15T05:33:34.912Z,28.5
2017-03-15T05:34:34.561Z,28.7
2017-03-15T05:35:34.663Z,28.8
2017-03-15T05:36:33.708Z,28.8
2017-03-15T05:37:34.718Z,29
2017-03-15T05:38:34.813Z,29
2017-03-15T05:39:34.009Z,29.1
2017-03-15T05:40:34.939Z,29.1
2017-03-15T05:41:33.770Z,29.2
2017-03-15T05:42:33.857Z,29.2
2017-03-15T05:43:33.846Z,29.3
2017-03-15T05:44:34.569Z,29.3
2017-03-15T05:45:34.342Z,29.3
2017-03-15T05:46:34.157Z,29.3
2017-03-15T05:47:35.870Z,29.2
2017-03-15T05:48:35.277Z,29.2
2017-03-15T05:49:36.161Z,29.2
2017-03-15T05:50:34.322Z,29.2
2017-03-15T05:51:34.616Z,29.1
2017-03-15T05:52:35.692Z,29.1
2017-03-15T05:53:34.576Z,29.1
2017-03-15T05:54:35.666Z,29.2
2017-03-15T05:55:35.734Z,29.1
2017-03-15T05:56:35.771Z,29.1
2017-03-15T05:57:35.947Z,29.1
2017-03-15T05:58:34.811Z,29.1
2017-03-15T05:59:36.001Z,29.1
2017-03-15T06:00:35.959Z,29
2017-03-15T06:01:34.916Z,29
2017-03-15T06:02:34.952Z,29
2017-03-15T06:03:36.274Z,29
2017-03-15T06:04:36.189Z,28.9
2017-03-15T06:05:36.990Z,28.9
2017-03-15T06:06:35.288Z,28.9
2017-03-15T06:07:35.398Z,28.9
2017-03-15T06:08:35.466Z,28.9
2017-03-15T06:09:38.948Z,28.9
2017-03-15T06:10:36.713Z,28.8
2017-03-15T06:11:35.729Z,28.8
2017-03-15T06:12:36.914Z,28.7
2017-03-15T06:13:35.968Z,28.8
2017-03-15T06:14:36.936Z,28.7
2017-03-15T06:15:36.181Z,28.7
2017-03-15T06:16:36.997Z,28.7
2017-03-15T06:17:36.017Z,28.6
2017-03-15T06:18:37.158Z,28.6
2017-03-15T06:19:37.927Z,28.6
2017-03-15T06:20:37.261Z,28.6
2017-03-15T06:21:36.495Z,28.6
2017-03-15T06:22:36.462Z,28.5
2017-03-15T06:23:37.548Z,28.5
2017-03-15T06:24:37.477Z,28.5
2017-03-15T06:25:37.595Z,28.5
2017-03-15T06:26:37.674Z,28.4
2017-03-15T06:27:37.833Z,28.4
2017-03-15T06:28:36.592Z,28.3
2017-03-15T06:29:37.807Z,28.3
2017-03-15T06:30:36.683Z,28.3
2017-03-15T06:31:36.829Z,28.3
2017-03-15T06:32:37.831Z,28.3
2017-03-15T06:33:37.208Z,28.3
2017-03-15T06:34:38.591Z,28.3
2017-03-15T06:35:38.133Z,28.3
2017-03-15T06:36:38.716Z,28.3
2017-03-15T06:37:37.230Z,28.3
2017-03-15T06:38:38.496Z,28.3
2017-03-15T06:39:37.483Z,28.3
2017-03-15T06:40:38.945Z,28.3
2017-03-15T06:41:38.406Z,28.4
2017-03-15T06:42:37.339Z,28.4
2017-03-15T06:43:37.462Z,28.4
2017-03-15T06:44:37.467Z,28.5
2017-03-15T06:45:37.750Z,28.5
2017-03-15T06:46:37.566Z,28.6
2017-03-15T06:47:41.813Z,28.6
2017-03-15T06:48:38.361Z,28.6
2017-03-15T06:49:37.670Z,28.6
2017-03-15T06:50:37.739Z,28.6
2017-03-15T06:51:37.985Z,28.6
2017-03-15T06:52:37.876Z,28.6
2017-03-15T06:53:37.975Z,28.6
2017-03-15T06:54:39.094Z,28.5
2017-03-15T06:55:39.108Z,28.5
2017-03-15T06:56:39.110Z,28.4
2017-03-15T06:57:39.519Z,28.4
2017-03-15T06:58:41.924Z,28.4
2017-03-15T06:59:39.913Z,28.3
2017-03-15T07:00:39.012Z,28.3
2017-03-15T07:01:38.330Z,28.3
2017-03-15T07:02:40.219Z,28.3
2017-03-15T07:03:38.650Z,28.2
2017-03-15T07:04:39.621Z,28.2
2017-03-15T07:05:39.529Z,28.2
2017-03-15T07:06:39.707Z,28.2
2017-03-15T07:07:39.843Z,28.1
2017-03-15T07:08:38.981Z,28.1
2017-03-15T07:09:40.530Z,28.1
2017-03-15T07:10:40.920Z,28.1
2017-03-15T07:11:38.907Z,28
2017-03-15T07:12:38.923Z,28
2017-03-15T07:13:41.472Z,28
2017-03-15T07:14:40.120Z,27.9
2017-03-15T07:15:40.686Z,27.9
2017-03-15T07:16:39.106Z,27.9
2017-03-15T07:17:39.847Z,27.8
2017-03-15T07:18:40.383Z,27.8
2017-03-15T07:19:41.093Z,27.8
2017-03-15T07:20:39.459Z,27.8
2017-03-15T07:21:40.482Z,27.7
2017-03-15T07:22:40.439Z,27.7
2017-03-15T07:23:39.450Z,27.7
2017-03-15T07:24:40.026Z,27.7
2017-03-15T07:25:40.293Z,27.6
2017-03-15T07:26:39.644Z,27.6
2017-03-15T07:27:39.587Z,27.5
2017-03-15T07:28:39.714Z,27.5
2017-03-15T07:29:41.517Z,27.4
2017-03-15T07:30:40.489Z,27.4
2017-03-15T07:31:41.039Z,27.4
2017-03-15T07:32:41.056Z,27.3
2017-03-15T07:33:41.125Z,27.3
2017-03-15T07:34:41.834Z,27.2
2017-03-15T07:35:41.255Z,27.1
2017-03-15T07:36:41.831Z,27.1
2017-03-15T07:37:41.349Z,27.1
2017-03-15T07:38:41.378Z,27.1
2017-03-15T07:39:40.910Z,27
2017-03-15T07:40:41.436Z,27
2017-03-15T07:41:41.445Z,27
2017-03-15T07:42:41.465Z,26.9
2017-03-15T07:43:40.501Z,26.9
2017-03-15T07:44:42.530Z,26.9
2017-03-15T07:45:42.896Z,26.9
2017-03-15T07:46:42.796Z,26.9
2017-03-15T07:47:40.883Z,26.9
2017-03-15T07:48:41.930Z,26.9
2017-03-15T07:49:42.086Z,26.9
2017-03-15T07:50:42.436Z,26.9
2017-03-15T07:51:42.257Z,26.9
2017-03-15T07:52:43.025Z,26.9
2017-03-15T07:53:42.273Z,26.9
2017-03-15T07:54:41.183Z,26.9
2017-03-15T07:55:41.857Z,26.9
2017-03-15T07:56:42.597Z,26.9
2017-03-15T07:57:41.469Z,26.9
2017-03-15T07:58:42.830Z,26.9
2017-03-15T07:59:41.460Z,26.9
2017-03-15T08:00:41.608Z,26.9
2017-03-15T08:01:42.599Z,26.8
2017-03-15T08:02:41.788Z,26.8
2017-03-15T08:03:42.962Z,26.8
2017-03-15T08:04:41.658Z,26.7
2017-03-15T08:05:41.716Z,26.7
2017-03-15T08:06:43.505Z,26.7
2017-03-15T08:07:44.047Z,26.7
2017-03-15T08:08:43.141Z,26.7
2017-03-15T08:09:43.689Z,26.6
2017-03-15T08:10:43.246Z,26.6
2017-03-15T08:11:42.782Z,26.6
2017-03-15T08:12:44.092Z,26.5
2017-03-15T08:13:43.348Z,26.5
2017-03-15T08:14:42.476Z,26.5
2017-03-15T08:15:42.211Z,26.5
2017-03-15T08:16:43.434Z,26.5
2017-03-15T08:17:43.400Z,26.5
2017-03-15T08:18:43.506Z,26.5
2017-03-15T08:19:43.503Z,26.5
2017-03-15T08:20:42.640Z,26.5
2017-03-15T08:21:44.138Z,26.4
2017-03-15T08:22:42.691Z,26.4
2017-03-15T08:23:43.821Z,26.4
2017-03-15T08:24:43.268Z,26.4
2017-03-15T08:25:42.720Z,26.4
2017-03-15T08:26:44.623Z,26.4
2017-03-15T08:27:42.782Z,26.4
2017-03-15T08:28:42.871Z,26.3
2017-03-15T08:29:45.167Z,26.3
2017-03-15T08:30:46.375Z,26.3
2017-03-15T08:31:44.101Z,26.3
2017-03-15T08:32:45.496Z,26.3
2017-03-15T08:33:44.321Z,26.2
2017-03-15T08:34:44.291Z,26.2
2017-03-15T08:35:44.293Z,26.2
2017-03-15T08:36:43.346Z,26.2
2017-03-15T08:37:45.625Z,26.2
2017-03-15T08:38:44.240Z,26.2
2017-03-15T08:39:44.589Z,26.2
2017-03-15T08:40:44.751Z,26.1
2017-03-15T08:41:43.627Z,26.1
2017-03-15T08:42:43.723Z,26.1
2017-03-15T08:43:43.693Z,26
2017-03-15T08:44:44.308Z,26
2017-03-15T08:45:43.855Z,26
2017-03-15T08:46:43.938Z,26
2017-03-15T08:47:43.984Z,25.9
2017-03-15T08:48:45.082Z,25.9
2017-03-15T08:49:45.138Z,25.9
2017-03-15T08:50:45.912Z,25.9
2017-03-15T08:51:44.203Z,25.8
2017-03-15T08:52:45.896Z,25.8
2017-03-15T08:53:44.274Z,25.8
2017-03-15T08:54:45.478Z,25.8
2017-03-15T08:55:44.315Z,25.8
2017-03-15T08:56:45.639Z,25.7
2017-03-15T08:57:44.465Z,25.7
2017-03-15T08:58:44.447Z,25.6
2017-03-15T08:59:44.547Z,25.5
2017-03-15T09:00:52.456Z,25.4
2017-03-15T09:01:44.533Z,25.4
2017-03-15T09:02:54.437Z,25.4
2017-03-15T09:03:44.719Z,25.4
2017-03-15T09:04:52.711Z,25.3
2017-03-15T09:05:45.512Z,25.3
2017-03-15T09:06:45.882Z,25.3
2017-03-15T09:07:45.882Z,25.2
2017-03-15T09:08:45.005Z,25.2
2017-03-15T09:09:45.078Z,25.2
2017-03-15T09:10:46.259Z,25.2
2017-03-15T09:11:48.088Z,25.1
2017-03-15T09:12:45.272Z,25
2017-03-15T09:13:47.733Z,24.9
2017-03-15T09:14:46.958Z,24.9
2017-03-15T09:15:47.605Z,24.8
2017-03-15T09:16:46.534Z,24.8
2017-03-15T09:17:50.342Z,24.8
2017-03-15T09:18:45.539Z,24.7
2017-03-15T09:19:46.711Z,24.7
2017-03-15T09:20:46.700Z,24.7
2017-03-15T09:21:45.710Z,24.7
2017-03-15T09:22:47.429Z,24.7
2017-03-15T09:23:45.888Z,24.6
2017-03-15T09:24:47.592Z,24.7
2017-03-15T09:25:47.043Z,24.7
2017-03-15T09:26:46.664Z,24.7
2017-03-15T09:27:48.521Z,24.7
2017-03-15T09:28:50.435Z,24.7
2017-03-15T09:29:46.916Z,24.7
2017-03-15T09:30:47.545Z,24.6
2017-03-15T09:31:47.428Z,24.6
2017-03-15T09:32:49.195Z,24.5
2017-03-15T09:33:52.472Z,24.6
2017-03-15T09:34:48.595Z,24.6
2017-03-15T09:35:52.429Z,24.6
2017-03-15T09:36:54.345Z,24.6
2017-03-15T09:37:48.803Z,24.6
2017-03-15T09:38:51.365Z,24.5
2017-03-15T09:39:47.551Z,24.5
2017-03-15T09:40:48.356Z,24.6
2017-03-15T09:41:48.544Z,24.6
2017-03-15T09:42:48.746Z,24.5
2017-03-15T09:43:47.080Z,24.5
2017-03-15T09:44:48.929Z,24.4
2017-03-15T09:45:49.526Z,24.4
2017-03-15T09:46:52.734Z,24.4
2017-03-15T09:47:49.377Z,24.5
2017-03-15T09:48:49.199Z,24.7
2017-03-15T09:49:49.288Z,24.8
2017-03-15T09:50:51.766Z,24.9
2017-03-15T09:51:54.205Z,25.1
2017-03-15T09:52:48.664Z,25.2
2017-03-15T09:53:47.780Z,25.3
2017-03-15T09:54:48.384Z,25.4
2017-03-15T09:55:48.550Z,25.5
2017-03-15T09:56:50.154Z,25.6
2017-03-15T09:57:50.210Z,25.7
2017-03-15T09:58:49.702Z,25.7
2017-03-15T09:59:49.425Z,25.8
2017-03-15T10:00:49.257Z,25.8
2017-03-15T10:01:49.895Z,25.9
2017-03-15T10:02:49.807Z,26
2017-03-15T10:03:48.326Z,26
2017-03-15T10:04:49.481Z,26.1
2017-03-15T10:05:48.458Z,26.1
2017-03-15T10:06:48.587Z,26.2
2017-03-15T10:07:50.924Z,26.2
2017-03-15T10:08:51.274Z,26.1
2017-03-15T10:09:50.034Z,26.1
2017-03-15T10:10:50.510Z,26.1
2017-03-15T10:11:49.529Z,26.1
2017-03-15T10:12:49.795Z,26.1
2017-03-15T10:13:50.021Z,26.2
2017-03-15T10:14:49.894Z,26.2
2017-03-15T10:15:48.973Z,26.3
2017-03-15T10:16:48.957Z,26.3
2017-03-15T10:17:49.098Z,26.3
2017-03-15T10:18:49.006Z,26.4
2017-03-15T10:19:52.466Z,26.4
2017-03-15T10:20:50.239Z,26.4
2017-03-15T10:21:51.890Z,26.4
2017-03-15T10:22:51.011Z,26.3
2017-03-15T10:23:50.613Z,26.2
2017-03-15T10:24:50.091Z,26.2
2017-03-15T10:25:50.512Z,26.1
2017-03-15T10:26:51.275Z,26
2017-03-15T10:27:50.595Z,26
2017-03-15T10:28:50.242Z,26
2017-03-15T10:29:52.701Z,26
2017-03-15T10:30:50.801Z,26
2017-03-15T10:31:52.079Z,26
2017-03-15T10:32:51.102Z,26
2017-03-15T10:33:51.150Z,26
2017-03-15T10:34:49.883Z,25.9
2017-03-15T10:35:50.630Z,25.9
2017-03-15T10:36:53.047Z,25.9
2017-03-15T10:37:52.421Z,25.8
2017-03-15T10:39:50.249Z,25.8
2017-03-15T10:40:50.941Z,25.8
2017-03-15T10:41:50.369Z,25.8
2017-03-15T10:42:51.449Z,25.8
2017-03-15T10:43:51.596Z,25.8
2017-03-15T10:44:51.864Z,25.8
2017-03-15T10:45:53.010Z,25.8
2017-03-15T10:46:54.473Z,25.8
2017-03-15T10:47:53.057Z,25.7
2017-03-15T10:48:51.781Z,25.6
2017-03-15T10:49:51.502Z,25.7
2017-03-15T10:50:52.362Z,25.7
2017-03-15T10:51:51.913Z,25.6
2017-03-15T10:52:52.049Z,25.6
2017-03-15T10:53:51.065Z,25.6
2017-03-15T10:54:52.193Z,25.6
2017-03-15T10:55:52.785Z,25.5
2017-03-15T10:56:52.459Z,25.5
2017-03-15T10:57:53.421Z,25.4
2017-03-15T10:58:51.852Z,25.4
2017-03-15T10:59:51.873Z,25.4
2017-03-15T11:00:56.642Z,25.4
2017-03-15T11:01:52.054Z,25.4
2017-03-15T11:02:53.587Z,25.4
2017-03-15T11:03:53.772Z,25.4
2017-03-15T11:04:52.211Z,25.4
2017-03-15T11:05:53.061Z,25.4
2017-03-15T11:06:54.632Z,25.4
2017-03-15T11:07:53.552Z,25.4
2017-03-15T11:08:53.063Z,25.4
2017-03-15T11:09:55.199Z,25.4
2017-03-15T11:10:54.831Z,25.4
2017-03-15T11:11:54.608Z,25.4
2017-03-15T11:12:53.579Z,25.4
2017-03-15T11:13:52.767Z,25.3
2017-03-15T11:14:54.356Z,25.3
2017-03-15T11:15:52.348Z,25.3
2017-03-15T11:16:53.785Z,25.3
2017-03-15T11:17:52.297Z,25.2
2017-03-15T11:18:53.571Z,25.2
2017-03-15T11:19:52.276Z,25.1
2017-03-15T11:20:52.368Z,25.1
2017-03-15T11:21:52.378Z,25.1
2017-03-15T11:22:52.986Z,25.1
2017-03-15T11:23:55.164Z,25
2017-03-15T11:24:56.397Z,25.1
2017-03-15T11:25:53.938Z,25.1
2017-03-15T11:26:55.613Z,25.1
2017-03-15T11:27:55.070Z,25.1
2017-03-15T11:28:54.425Z,25.1
2017-03-15T11:29:59.259Z,25.1
2017-03-15T11:30:53.535Z,25.1
2017-03-15T11:31:54.719Z,25.1
2017-03-15T11:32:55.296Z,25.1
2017-03-15T11:33:53.088Z,25.1
2017-03-15T11:34:55.572Z,25.1
2017-03-15T11:35:54.652Z,25.1
2017-03-15T11:36:53.139Z,25.1
2017-03-15T11:37:54.690Z,25.1
2017-03-15T11:38:55.466Z,25.2
2017-03-15T11:39:55.470Z,25.2
2017-03-15T11:40:53.914Z,25.2
2017-03-15T11:41:55.027Z,25.2
2017-03-15T11:42:55.546Z,25.2
2017-03-15T11:43:54.054Z,25.3
2017-03-15T11:44:55.191Z,25.3
2017-03-15T11:45:56.385Z,25.3
2017-03-15T11:46:53.528Z,25.3
2017-03-15T11:47:55.892Z,25.3
2017-03-15T11:48:53.565Z,25.3
2017-03-15T11:49:55.647Z,25.3
2017-03-15T11:50:55.036Z,25.3
2017-03-15T11:51:56.457Z,25.4
2017-03-15T11:52:56.209Z,25.4
2017-03-15T11:53:55.446Z,25.4
2017-03-15T11:54:53.876Z,25.4
2017-03-15T11:55:55.703Z,25.4
2017-03-15T11:56:56.901Z,25.4
2017-03-15T11:57:54.014Z,25.4
2017-03-15T11:58:55.204Z,25.4
2017-03-15T11:59:55.518Z,25.4
2017-03-15T12:00:54.770Z,25.4
2017-03-15T12:01:55.331Z,25.4
2017-03-15T12:02:56.038Z,25.4
2017-03-15T12:03:54.454Z,25.4
2017-03-15T12:04:56.065Z,25.3
2017-03-15T12:05:54.576Z,25.3
2017-03-15T12:06:54.636Z,25.3
2017-03-15T12:07:55.794Z,25.3
2017-03-15T12:08:54.655Z,25.2
2017-03-15T12:09:56.670Z,25.2
2017-03-15T12:10:54.803Z,25.1
2017-03-15T12:11:56.673Z,25.1
2017-03-15T12:12:55.357Z,25.1
2017-03-15T12:13:56.010Z,25
2017-03-15T12:14:56.011Z,25
2017-03-15T12:15:54.953Z,25
2017-03-15T12:16:55.996Z,25
2017-03-15T12:17:56.714Z,25
2017-03-15T12:18:55.201Z,25
2017-03-15T12:19:56.789Z,24.9
2017-03-15T12:20:55.750Z,24.9
2017-03-15T12:21:56.637Z,24.9
2017-03-15T12:22:57.238Z,24.9
2017-03-15T12:23:55.333Z,24.9
2017-03-15T12:24:55.294Z,24.8
2017-03-15T12:25:56.196Z,24.8
2017-03-15T12:26:56.610Z,24.8
2017-03-15T12:27:55.986Z,24.7
2017-03-15T12:28:56.619Z,24.7
2017-03-15T12:29:56.678Z,24.7
2017-03-15T12:30:56.271Z,24.7
2017-03-15T12:31:56.844Z,24.7
2017-03-15T12:32:56.921Z,24.7
2017-03-15T12:33:57.070Z,24.7
2017-03-15T12:34:57.649Z,24.6
2017-03-15T12:36:00.214Z,24.6
2017-03-15T12:36:57.506Z,24.6
2017-03-15T12:37:57.685Z,24.6
2017-03-15T12:38:56.725Z,24.6
2017-03-15T12:39:56.862Z,24.6
2017-03-15T12:40:56.086Z,24.6
2017-03-15T12:41:57.956Z,24.6
2017-03-15T12:42:56.342Z,24.5
2017-03-15T12:43:58.011Z,24.6
2017-03-15T12:44:58.080Z,24.6
2017-03-15T12:45:56.327Z,24.7
2017-03-15T12:46:57.988Z,24.8
2017-03-15T12:47:58.162Z,24.9
2017-03-15T12:48:57.602Z,25
2017-03-15T12:49:58.393Z,25.1
2017-03-15T12:50:59.298Z,25.2
2017-03-15T12:51:56.626Z,25.2
2017-03-15T12:52:59.985Z,25.3
2017-03-15T12:53:58.010Z,25.4
2017-03-15T12:54:57.442Z,25.4
2017-03-15T12:55:58.493Z,25.5
2017-03-15T12:57:01.984Z,25.5
2017-03-15T12:57:57.020Z,25.5
2017-03-15T12:58:57.988Z,25.6
2017-03-15T12:59:58.677Z,25.5
2017-03-15T13:00:57.662Z,25.6
2017-03-15T13:01:59.426Z,25.6
2017-03-15T13:03:00.753Z,25.6
2017-03-15T13:03:57.930Z,25.6
2017-03-15T13:04:58.454Z,25.6
2017-03-15T13:05:58.559Z,25.5
2017-03-15T13:06:59.100Z,25.5
2017-03-15T13:07:57.384Z,25.5
2017-03-15T13:08:58.744Z,25.4
2017-03-15T13:09:57.476Z,25.4
2017-03-15T13:10:57.442Z,25.3
2017-03-15T13:11:59.764Z,25.3
2017-03-15T13:13:00.193Z,25.4
2017-03-15T13:13:58.581Z,25.4
2017-03-15T13:15:00.525Z,25.3
2017-03-15T13:15:57.601Z,25.3
2017-03-15T13:16:58.788Z,25.3
2017-03-15T13:17:57.741Z,25.2
2017-03-15T13:18:58.442Z,25.2
2017-03-15T13:20:01.096Z,25.2
2017-03-15T13:21:00.152Z,25.2
2017-03-15T13:21:59.808Z,25.2
2017-03-15T13:22:58.635Z,25.2